Time,TemperatureF,DewpointF,PressureIn,WindDirection,WindDirectionDegrees,WindSpeedMPH,WindSpeedGustMPH,Humidity,HourlyPrecipIn,Conditions,Clouds,dailyrainin,SoftwareType,DateUTC
2013-01-11 00:00:00,63.3,57.4,29.97,SE,146,0.0,0.0,81,0.00,,,0.00,Weather View 32 v70,2013-01-11 06:00:00,
2013-01-11 00:10:00,63.5,57.9,29.97,SE,145,0.0,0.0,82,0.00,,,0.00,Weather View 32 v70,2013-01-11 06:10:00,
2013-01-11 00:15:00,63.5,57.9,29.97,SE,145,0.0,0.0,82,0.00,,,0.00,Weather View 32 v70,2013-01-11 06:15:00,
2013-01-11 00:25:00,63.5,57.9,29.97,SE,146,0.0,0.0,82,0.00,,,0.00,Weather View 32 v70,2013-01-11 06:25:00,
2013-01-11 00:30:00,63.5,57.9,29.97,SE,145,0.0,0.0,82,0.00,,,0.00,Weather View 32 v70,2013-01-11 06:30:00,
2013-01-11 00:40:00,63.5,57.9,29.97,SE,145,0.0,0.0,82,0.00,,,0.00,Weather View 32 v70,2013-01-11 06:40:00,
2013-01-11 00:50:00,63.5,57.9,29.97,SE,145,0.0,0.0,82,0.00,,,0.00,Weather View 32 v70,2013-01-11 06:50:00,
2013-01-11 00:55:00,63.5,57.9,29.97,SE,146,0.0,0.0,82,0.00,,,0.00,Weather View 32 v70,2013-01-11 06:55:00,
2013-01-11 01:00:00,63.3,57.7,29.97,SE,145,0.0,0.0,82,0.00,,,0.00,Weather View 32 v70,2013-01-11 07:00:00,
2013-01-11 01:05:00,63.3,57.7,29.97,SE,146,0.0,0.0,82,0.00,,,0.00,Weather View 32 v70,2013-01-11 07:05:00,
2013-01-11 01:10:00,63.3,57.7,29.97,SE,146,0.0,0.0,82,0.00,,,0.00,Weather View 32 v70,2013-01-11 07:10:00,
2013-01-11 01:15:00,63.3,57.7,29.97,SE,145,0.0,0.0,82,0.00,,,0.00,Weather View 32 v70,2013-01-11 07:15:00,
2013-01-11 01:25:00,63.3,57.7,29.97,SE,145,0.0,0.0,82,0.00,,,0.00,Weather View 32 v70,2013-01-11 07:25:00,
2013-01-11 01:30:00,63.5,57.9,29.97,SE,146,0.0,0.0,82,0.00,,,0.00,Weather View 32 v70,2013-01-11 07:30:00,
2013-01-11 01:40:00,63.5,57.9,29.97,SE,145,0.0,0.0,82,0.00,,,0.00,Weather View 32 v70,2013-01-11 07:40:00,
2013-01-11 01:45:00,63.5,57.9,29.97,SE,145,0.0,0.0,82,0.00,,,0.00,Weather View 32 v70,2013-01-11 07:45:00,
2013-01-11 01:55:00,63.7,58.1,29.97,SE,137,0.0,2.0,82,0.00,,,0.00,Weather View 32 v70,2013-01-11 07:55:00,
2013-01-11 02:00:00,63.9,58.2,29.97,SE,138,0.0,2.0,82,0.00,,,0.00,Weather View 32 v70,2013-01-11 08:00:00,
2013-01-11 02:08:00,63.9,58.2,29.94,SE,137,0.0,2.0,82,0.00,,,0.00,Weather View 32 v70,2013-01-11 08:08:00,
2013-01-11 02:15:00,64.0,58.4,29.94,SE,139,0.0,2.0,82,0.00,,,0.00,Weather View 32 v70,2013-01-11 08:15:00,
2013-01-11 02:25:00,64.2,58.6,29.94,SSE,161,0.0,2.0,82,0.00,,,0.00,Weather View 32 v70,2013-01-11 08:25:00,
2013-01-11 02:30:00,64.2,58.6,29.94,SSE,150,0.0,2.0,82,0.00,,,0.00,Weather View 32 v70,2013-01-11 08:30:00,
2013-01-11 02:35:00,64.4,58.8,29.94,SSE,150,0.0,2.0,82,0.00,,,0.00,Weather View 32 v70,2013-01-11 08:35:00,
2013-01-11 02:45:00,64.4,58.8,29.94,South,181,0.0,2.0,82,0.00,,,0.00,Weather View 32 v70,2013-01-11 08:45:00,
2013-01-11 02:50:00,64.6,58.9,29.94,WSW,237,0.0,2.0,82,0.00,,,0.00,Weather View 32 v70,2013-01-11 08:50:00,
2013-01-11 02:55:00,64.8,59.1,29.94,SSE,153,0.0,0.0,82,0.00,,,0.00,Weather View 32 v70,2013-01-11 08:55:00,
2013-01-11 03:00:00,64.8,59.1,29.94,SSW,192,0.0,2.0,82,0.00,,,0.00,Weather View 32 v70,2013-01-11 09:00:00,
2013-01-11 03:05:00,64.8,59.1,29.94,South,186,0.0,2.0,82,0.00,,,0.00,Weather View 32 v70,2013-01-11 09:05:00,
2013-01-11 03:15:00,64.6,58.9,29.94,SSE,164,0.0,2.0,82,0.00,,,0.00,Weather View 32 v70,2013-01-11 09:15:00,
2013-01-11 03:25:00,64.4,58.8,29.94,SSE,163,0.0,2.0,82,0.00,,,0.00,Weather View 32 v70,2013-01-11 09:25:00,
2013-01-11 03:35:00,64.4,58.8,29.94,SSE,163,0.0,2.0,82,0.00,,,0.00,Weather View 32 v70,2013-01-11 09:35:00,
2013-01-11 03:45:00,64.6,58.9,29.94,South,174,0.0,2.0,82,0.00,,,0.00,Weather View 32 v70,2013-01-11 09:45:00,
2013-01-11 03:54:00,64.6,58.9,29.94,SE,135,0.0,2.0,82,0.00,,,0.00,Weather View 32 v70,2013-01-11 09:54:00,
2013-01-11 04:00:00,64.8,59.1,29.94,SSW,194,0.0,0.0,82,0.00,,,0.00,Weather View 32 v70,2013-01-11 10:00:00,
2013-01-11 04:05:00,64.8,59.1,29.94,SSE,154,0.0,0.0,82,0.00,,,0.00,Weather View 32 v70,2013-01-11 10:05:00,
2013-01-11 04:12:00,64.8,59.1,29.94,South,190,0.0,0.0,82,0.00,,,0.00,Weather View 32 v70,2013-01-11 10:12:00,
2013-01-11 04:20:00,64.9,59.3,29.94,SE,142,0.0,0.0,82,0.00,,,0.00,Weather View 32 v70,2013-01-11 10:20:00,
2013-01-11 04:26:00,64.9,59.3,29.94,SE,142,0.0,0.0,82,0.00,,,0.00,Weather View 32 v70,2013-01-11 10:26:00,
2013-01-11 04:32:00,65.1,59.5,29.94,SSW,212,0.0,0.0,82,0.00,,,0.00,Weather View 32 v70,2013-01-11 10:32:00,
2013-01-11 04:40:00,65.1,59.5,29.94,SE,142,0.0,2.0,82,0.00,,,0.00,Weather View 32 v70,2013-01-11 10:40:00,
2013-01-11 04:45:00,65.1,59.5,29.94,SE,138,0.0,2.0,82,0.00,,,0.00,Weather View 32 v70,2013-01-11 10:45:00,
2013-01-11 04:50:00,64.9,59.3,29.94,South,170,0.0,2.0,82,0.00,,,0.00,Weather View 32 v70,2013-01-11 10:50:00,
2013-01-11 04:59:00,64.9,59.3,29.94,SSW,202,0.0,2.0,82,0.00,,,0.00,Weather View 32 v70,2013-01-11 10:59:00,
2013-01-11 05:05:00,65.1,59.5,29.94,SSE,152,0.0,3.0,82,0.00,,,0.00,Weather View 32 v70,2013-01-11 11:05:00,
2013-01-11 05:15:00,65.1,59.5,29.94,South,189,0.0,3.0,82,0.00,,,0.00,Weather View 32 v70,2013-01-11 11:15:00,
2013-01-11 05:20:00,65.1,59.5,29.94,SSE,163,0.0,3.0,82,0.00,,,0.00,Weather View 32 v70,2013-01-11 11:20:00,
2013-01-11 05:25:00,65.1,59.5,29.94,SE,130,0.0,3.0,82,0.00,,,0.00,Weather View 32 v70,2013-01-11 11:25:00,
2013-01-11 05:30:00,65.1,59.5,29.94,SE,146,0.0,3.0,82,0.00,,,0.00,Weather View 32 v70,2013-01-11 11:30:00,
2013-01-11 05:40:00,65.1,59.5,29.94,SSW,203,0.0,3.0,82,0.00,,,0.00,Weather View 32 v70,2013-01-11 11:40:00,
2013-01-11 05:45:00,65.3,59.6,29.94,South,182,0.0,3.0,82,0.00,,,0.00,Weather View 32 v70,2013-01-11 11:45:00,
2013-01-11 05:50:00,65.3,59.6,29.94,South,175,0.0,3.0,82,0.00,,,0.00,Weather View 32 v70,2013-01-11 11:50:00,
2013-01-11 05:55:00,65.3,59.6,29.94,SSE,149,0.0,3.0,82,0.00,,,0.00,Weather View 32 v70,2013-01-11 11:55:00,
2013-01-11 06:00:00,65.5,59.8,29.94,SE,136,0.0,3.0,82,0.00,,,0.00,Weather View 32 v70,2013-01-11 12:00:00,
2013-01-11 06:10:00,65.7,60.0,29.94,South,191,0.0,3.0,82,0.00,,,0.00,Weather View 32 v70,2013-01-11 12:10:00,
2013-01-11 06:15:00,65.7,60.0,29.94,South,172,0.0,3.0,82,0.00,,,0.00,Weather View 32 v70,2013-01-11 12:15:00,
2013-01-11 06:25:00,65.8,60.2,29.94,SW,222,0.0,3.0,82,0.00,,,0.00,Weather View 32 v70,2013-01-11 12:25:00,
2013-01-11 06:30:00,65.7,60.0,29.94,SSW,192,0.0,3.0,82,0.00,,,0.00,Weather View 32 v70,2013-01-11 12:30:00,
2013-01-11 06:35:00,65.7,59.7,29.97,SSW,213,0.0,3.0,81,0.00,,,0.00,Weather View 32 v70,2013-01-11 12:35:00,
2013-01-11 06:45:00,65.5,59.5,29.97,SSW,202,0.0,3.0,81,0.00,,,0.00,Weather View 32 v70,2013-01-11 12:45:00,
2013-01-11 06:50:00,65.5,59.5,29.97,SSW,194,0.0,3.0,81,0.00,,,0.00,Weather View 32 v70,2013-01-11 12:50:00,
2013-01-11 06:55:00,65.5,59.5,29.97,SSE,163,0.0,3.0,81,0.00,,,0.00,Weather View 32 v70,2013-01-11 12:55:00,
2013-01-11 07:00:00,65.5,59.5,29.97,ESE,119,0.0,3.0,81,0.00,,,0.00,Weather View 32 v70,2013-01-11 13:00:00,
2013-01-11 07:05:00,65.7,59.7,29.97,SSE,156,0.0,3.0,81,0.00,,,0.00,Weather View 32 v70,2013-01-11 13:05:00,
2013-01-11 07:10:00,65.7,59.7,29.97,SW,226,0.0,3.0,81,0.00,,,0.00,Weather View 32 v70,2013-01-11 13:10:00,
2013-01-11 07:15:00,65.8,59.8,29.97,South,184,0.0,3.0,81,0.00,,,0.00,Weather View 32 v70,2013-01-11 13:15:00,
2013-01-11 07:20:00,66.0,60.0,29.97,SSE,164,0.0,3.0,81,0.00,,,0.00,Weather View 32 v70,2013-01-11 13:20:00,
2013-01-11 07:25:00,66.2,60.2,29.97,SE,140,0.0,3.0,81,0.00,,,0.00,Weather View 32 v70,2013-01-11 13:25:00,
2013-01-11 07:35:00,66.4,60.4,29.97,SE,136,0.0,3.0,81,0.00,,,0.00,Weather View 32 v70,2013-01-11 13:35:00,
2013-01-11 07:40:00,66.6,60.5,29.97,South,179,0.0,3.0,81,0.00,,,0.00,Weather View 32 v70,2013-01-11 13:40:00,
2013-01-11 07:50:00,66.6,60.5,29.97,SSE,160,0.0,3.0,81,0.00,,,0.00,Weather View 32 v70,2013-01-11 13:50:00,
2013-01-11 08:00:00,66.7,60.7,29.97,South,184,0.0,3.0,81,0.00,,,0.00,Weather View 32 v70,2013-01-11 14:00:00,
2013-01-11 08:10:00,66.7,60.7,29.97,SSE,168,0.0,2.0,81,0.00,,,0.00,Weather View 32 v70,2013-01-11 14:10:00,
2013-01-11 08:20:00,66.9,60.9,30.00,SSE,151,0.0,2.0,81,0.00,,,0.00,Weather View 32 v70,2013-01-11 14:20:00,
2013-01-11 08:25:00,67.1,61.1,30.00,SSW,200,0.0,2.0,81,0.00,,,0.00,Weather View 32 v70,2013-01-11 14:25:00,
2013-01-11 08:30:00,67.3,61.2,30.00,South,174,0.0,2.0,81,0.00,,,0.00,Weather View 32 v70,2013-01-11 14:30:00,
2013-01-11 08:40:00,67.6,61.2,30.00,South,190,0.0,0.0,80,0.00,,,0.00,Weather View 32 v70,2013-01-11 14:40:00,
2013-01-11 08:45:00,67.8,61.4,30.00,South,170,0.0,0.0,80,0.00,,,0.00,Weather View 32 v70,2013-01-11 14:45:00,
2013-01-11 08:50:00,68.0,61.6,30.00,South,169,0.0,0.0,80,0.00,,,0.00,Weather View 32 v70,2013-01-11 14:50:00,
2013-01-11 08:55:00,68.0,61.6,30.00,South,180,0.0,0.0,80,0.00,,,0.00,Weather View 32 v70,2013-01-11 14:55:00,
2013-01-11 09:01:00,68.2,61.8,30.00,South,175,0.0,2.0,80,0.00,,,0.00,Weather View 32 v70,2013-01-11 15:01:00,
2013-01-11 09:10:00,68.4,61.9,30.00,SSW,196,0.0,2.0,80,0.00,,,0.00,Weather View 32 v70,2013-01-11 15:10:00,
2013-01-11 09:15:00,68.5,61.7,30.00,SSE,165,0.0,3.0,79,0.00,,,0.00,Weather View 32 v70,2013-01-11 15:15:00,
2013-01-11 09:25:00,68.9,62.1,30.00,SE,127,0.0,3.0,79,0.00,,,0.00,Weather View 32 v70,2013-01-11 15:25:00,
2013-01-11 09:30:00,69.1,62.3,30.00,South,181,0.0,3.0,79,0.00,,,0.00,Weather View 32 v70,2013-01-11 15:30:00,
2013-01-11 09:40:00,69.3,62.4,30.00,SSW,208,0.0,3.0,79,0.00,,,0.00,Weather View 32 v70,2013-01-11 15:40:00,
2013-01-11 09:45:00,69.4,62.6,30.00,SSW,192,0.0,3.0,79,0.00,,,0.00,Weather View 32 v70,2013-01-11 15:45:00,
2013-01-11 09:50:00,69.4,62.3,30.00,SW,225,0.0,3.0,78,0.00,,,0.00,Weather View 32 v70,2013-01-11 15:50:00,
2013-01-11 09:55:00,69.6,62.4,30.00,SSE,158,0.0,3.0,78,0.00,,,0.00,Weather View 32 v70,2013-01-11 15:55:00,
2013-01-11 10:00:00,69.8,62.6,30.00,South,171,0.0,3.0,78,0.00,,,0.00,Weather View 32 v70,2013-01-11 16:00:00,
2013-01-11 10:05:00,69.8,62.6,30.00,South,176,0.0,3.0,78,0.00,,,0.00,Weather View 32 v70,2013-01-11 16:05:00,
2013-01-11 10:10:00,70.0,62.4,30.00,SSW,208,0.0,3.0,77,0.00,,,0.00,Weather View 32 v70,2013-01-11 16:10:00,
2013-01-11 10:20:00,70.3,62.4,30.00,SSE,152,0.0,3.0,76,0.00,,,0.00,Weather View 32 v70,2013-01-11 16:20:00,
2013-01-11 10:25:00,70.5,62.6,30.00,SSE,153,0.0,4.0,76,0.00,,,0.00,Weather View 32 v70,2013-01-11 16:25:00,
2013-01-11 10:30:00,70.5,62.6,30.00,SSE,157,3.0,4.0,76,0.00,,,0.00,Weather View 32 v70,2013-01-11 16:30:00,
2013-01-11 10:35:00,70.5,62.2,29.97,South,170,0.0,4.0,75,0.00,,,0.00,Weather View 32 v70,2013-01-11 16:35:00,
2013-01-11 10:40:00,70.7,62.4,29.97,ESE,110,0.0,4.0,75,0.00,,,0.00,Weather View 32 v70,2013-01-11 16:40:00,
2013-01-11 10:45:00,70.9,62.5,29.97,SSE,159,0.0,4.0,75,0.00,,,0.00,Weather View 32 v70,2013-01-11 16:45:00,
2013-01-11 10:55:00,71.2,62.9,29.97,South,177,0.0,4.0,75,0.00,,,0.00,Weather View 32 v70,2013-01-11 16:55:00,
2013-01-11 11:00:00,71.4,62.7,29.97,SSE,165,0.0,4.0,74,0.00,,,0.00,Weather View 32 v70,2013-01-11 17:00:00,
2013-01-11 11:10:00,72.3,62.4,29.97,South,179,2.0,4.0,71,0.00,,,0.00,Weather View 32 v70,2013-01-11 17:10:00,
2013-01-11 11:20:00,72.7,62.3,29.97,SSE,165,3.0,4.0,70,0.00,,,0.00,Weather View 32 v70,2013-01-11 17:20:00,
2013-01-11 11:25:00,72.7,61.9,29.97,SW,226,2.0,3.0,69,0.00,,,0.00,Weather View 32 v70,2013-01-11 17:25:00,
2013-01-11 11:30:00,72.7,62.3,29.97,SW,221,0.0,3.0,70,0.00,,,0.00,Weather View 32 v70,2013-01-11 17:30:00,
2013-01-11 11:35:00,73.0,62.6,29.97,SW,222,0.0,3.0,70,0.00,,,0.00,Weather View 32 v70,2013-01-11 17:35:00,
2013-01-11 11:40:00,73.0,62.6,29.97,SE,143,3.0,4.0,70,0.00,,,0.00,Weather View 32 v70,2013-01-11 17:40:00,
2013-01-11 11:50:00,72.9,62.1,29.94,South,171,0.0,4.0,69,0.00,,,0.00,Weather View 32 v70,2013-01-11 17:50:00,
2013-01-11 11:55:00,72.9,62.5,29.94,SE,140,0.0,4.0,70,0.00,,,0.00,Weather View 32 v70,2013-01-11 17:55:00,
2013-01-11 12:00:00,72.9,62.5,29.94,SSE,153,0.0,4.0,70,0.00,,,0.00,Weather View 32 v70,2013-01-11 18:00:00,
2013-01-11 12:05:00,72.9,62.5,29.94,SSE,168,2.0,4.0,70,0.00,,,0.00,Weather View 32 v70,2013-01-11 18:05:00,
2013-01-11 12:15:00,73.0,62.6,29.94,SSE,160,3.0,4.0,70,0.00,,,0.00,Weather View 32 v70,2013-01-11 18:15:00,
2013-01-11 12:20:00,73.2,62.8,29.94,SSE,154,2.0,4.0,70,0.00,,,0.00,Weather View 32 v70,2013-01-11 18:20:00,
2013-01-11 12:25:00,73.2,62.8,29.94,South,173,0.0,4.0,70,0.00,,,0.00,Weather View 32 v70,2013-01-11 18:25:00,
2013-01-11 12:30:00,73.2,62.8,29.94,SSE,163,3.0,4.0,70,0.00,,,0.00,Weather View 32 v70,2013-01-11 18:30:00,
2013-01-11 12:40:00,73.6,63.2,29.94,East,100,0.0,4.0,70,0.00,,,0.00,Weather View 32 v70,2013-01-11 18:40:00,
2013-01-11 12:45:00,74.1,63.3,29.94,SSW,192,0.0,4.0,69,0.00,,,0.00,Weather View 32 v70,2013-01-11 18:45:00,
2013-01-11 12:50:00,74.5,63.2,29.91,SSE,164,0.0,4.0,68,0.00,,,0.00,Weather View 32 v70,2013-01-11 18:50:00,
2013-01-11 12:55:00,74.7,62.9,29.91,South,190,0.0,4.0,67,0.00,,,0.00,Weather View 32 v70,2013-01-11 18:55:00,
2013-01-11 13:00:00,74.8,62.7,29.91,SE,140,0.0,4.0,66,0.00,,,0.00,Weather View 32 v70,2013-01-11 19:00:00,
2013-01-11 13:10:00,75.4,62.8,29.91,SE,137,0.0,4.0,65,0.00,,,0.00,Weather View 32 v70,2013-01-11 19:10:00,
2013-01-11 13:19:00,75.4,61.9,29.91,SSE,154,0.0,4.0,63,0.00,,,0.00,Weather View 32 v70,2013-01-11 19:19:00,
2013-01-11 13:25:00,75.4,62.3,29.91,SSW,210,0.0,4.0,64,0.00,,,0.00,Weather View 32 v70,2013-01-11 19:25:00,
2013-01-11 13:30:00,75.4,61.9,29.91,SSE,158,3.0,4.0,63,0.00,,,0.00,Weather View 32 v70,2013-01-11 19:30:00,
2013-01-11 13:35:00,75.2,61.7,29.91,South,177,0.0,4.0,63,0.00,,,0.00,Weather View 32 v70,2013-01-11 19:35:00,
2013-01-11 13:40:00,75.2,62.1,29.91,South,190,0.0,4.0,64,0.00,,,0.00,Weather View 32 v70,2013-01-11 19:40:00,
2013-01-11 13:45:00,75.2,61.7,29.91,SE,141,3.0,4.0,63,0.00,,,0.00,Weather View 32 v70,2013-01-11 19:45:00,
2013-01-11 13:50:00,74.8,61.4,29.91,South,170,2.0,4.0,63,0.00,,,0.00,Weather View 32 v70,2013-01-11 19:50:00,
2013-01-11 13:55:00,74.5,61.9,29.91,SE,144,0.0,4.0,65,0.00,,,0.00,Weather View 32 v70,2013-01-11 19:55:00,
2013-01-11 14:00:00,74.3,61.7,29.91,SE,139,3.0,4.0,65,0.00,,,0.00,Weather View 32 v70,2013-01-11 20:00:00,
2013-01-11 14:10:00,73.9,61.8,29.91,ESE,108,0.0,4.0,66,0.00,,,0.00,Weather View 32 v70,2013-01-11 20:10:00,
2013-01-11 14:15:00,74.1,62.0,29.91,SE,137,0.0,4.0,66,0.00,,,0.00,Weather View 32 v70,2013-01-11 20:15:00,
2013-01-11 14:25:00,73.9,62.2,29.91,SE,130,0.0,4.0,67,0.00,,,0.00,Weather View 32 v70,2013-01-11 20:25:00,
2013-01-11 14:30:00,73.8,62.1,29.91,SSE,162,0.0,4.0,67,0.00,,,0.00,Weather View 32 v70,2013-01-11 20:30:00,
2013-01-11 14:35:00,73.6,61.9,29.91,SE,146,2.0,4.0,67,0.00,,,0.00,Weather View 32 v70,2013-01-11 20:35:00,
2013-01-11 14:40:00,73.4,61.7,29.91,SSE,160,0.0,4.0,67,0.00,,,0.00,Weather View 32 v70,2013-01-11 20:40:00,
2013-01-11 14:45:00,73.2,62.0,29.91,SSE,162,2.0,4.0,68,0.00,,,0.00,Weather View 32 v70,2013-01-11 20:45:00,
2013-01-11 14:55:00,72.9,62.1,29.91,SE,140,0.0,4.0,69,0.00,,,0.00,Weather View 32 v70,2013-01-11 20:55:00,
2013-01-11 15:00:00,72.9,62.5,29.91,South,179,0.0,4.0,70,0.00,,,0.00,Weather View 32 v70,2013-01-11 21:00:00,
2013-01-11 15:05:00,72.9,62.5,29.91,SSE,150,4.0,4.0,70,0.00,,,0.00,Weather View 32 v70,2013-01-11 21:05:00,
2013-01-11 15:15:00,72.7,62.3,29.91,SSE,155,2.0,4.0,70,0.00,,,0.00,Weather View 32 v70,2013-01-11 21:15:00,
2013-01-11 15:20:00,72.3,62.0,29.91,ESE,122,4.0,4.0,70,0.00,,,0.00,Weather View 32 v70,2013-01-11 21:20:00,
2013-01-11 15:25:00,72.1,61.8,29.91,SE,143,3.0,4.0,70,0.00,,,0.00,Weather View 32 v70,2013-01-11 21:25:00,
2013-01-11 15:35:00,72.0,62.0,29.91,SSE,156,2.0,4.0,71,0.00,,,0.00,Weather View 32 v70,2013-01-11 21:35:00,
2013-01-11 15:40:00,72.0,62.0,29.91,SE,141,2.0,4.0,71,0.00,,,0.00,Weather View 32 v70,2013-01-11 21:40:00,
2013-01-11 15:45:00,72.1,62.6,29.91,SSE,166,0.0,4.0,72,0.00,,,0.00,Weather View 32 v70,2013-01-11 21:45:00,
2013-01-11 15:55:00,72.0,62.4,29.91,SSE,165,0.0,4.0,72,0.00,,,0.00,Weather View 32 v70,2013-01-11 21:55:00,
2013-01-11 16:00:00,71.8,62.2,29.91,ESE,119,0.0,4.0,72,0.00,,,0.00,Weather View 32 v70,2013-01-11 22:00:00,
2013-01-11 16:05:00,71.6,62.5,29.91,SE,145,0.0,4.0,73,0.00,,,0.00,Weather View 32 v70,2013-01-11 22:05:00,
2013-01-11 16:10:00,71.6,62.5,29.91,SE,133,0.0,4.0,73,0.00,,,0.00,Weather View 32 v70,2013-01-11 22:10:00,
2013-01-11 16:20:00,71.1,62.3,29.91,South,183,0.0,4.0,74,0.00,,,0.00,Weather View 32 v70,2013-01-11 22:20:00,
2013-01-11 16:25:00,70.9,62.5,29.91,SE,133,0.0,4.0,75,0.00,,,0.00,Weather View 32 v70,2013-01-11 22:25:00,
2013-01-11 16:35:00,70.5,62.6,29.91,ESE,106,0.0,3.0,76,0.00,,,0.00,Weather View 32 v70,2013-01-11 22:35:00,
2013-01-11 16:45:00,70.2,62.6,29.91,South,170,0.0,3.0,77,0.00,,,0.00,Weather View 32 v70,2013-01-11 22:45:00,
2013-01-11 16:55:00,70.0,62.8,29.91,SSE,150,0.0,3.0,78,0.00,,,0.00,Weather View 32 v70,2013-01-11 22:55:00,
2013-01-11 17:00:00,69.8,62.6,29.91,SSE,166,0.0,3.0,78,0.00,,,0.00,Weather View 32 v70,2013-01-11 23:00:00,
2013-01-11 17:06:00,69.8,62.6,29.94,ESE,123,3.0,3.0,78,0.00,,,0.00,Weather View 32 v70,2013-01-11 23:06:00,
2013-01-11 17:15:00,69.8,63.0,29.94,SSE,168,0.0,3.0,79,0.00,,,0.00,Weather View 32 v70,2013-01-11 23:15:00,
2013-01-11 17:24:00,70.0,63.1,29.91,SSE,150,0.0,3.0,79,0.00,,,0.00,Weather View 32 v70,2013-01-11 23:24:00,
2013-01-11 17:30:00,70.0,63.5,29.91,SSE,155,0.0,3.0,80,0.00,,,0.00,Weather View 32 v70,2013-01-11 23:30:00,
2013-01-11 17:34:00,70.2,63.7,29.91,SSW,195,0.0,3.0,80,0.00,,,0.00,Weather View 32 v70,2013-01-11 23:34:00,
2013-01-11 17:40:00,70.2,63.7,29.91,SSW,192,3.0,3.0,80,0.00,,,0.00,Weather View 32 v70,2013-01-11 23:40:00,
2013-01-11 17:44:00,70.2,63.7,29.91,SSE,167,0.0,3.0,80,0.00,,,0.00,Weather View 32 v70,2013-01-11 23:44:00,
2013-01-11 17:50:00,70.2,63.7,29.94,South,170,0.0,3.0,80,0.00,,,0.00,Weather View 32 v70,2013-01-11 23:50:00,
2013-01-11 18:00:00,70.0,63.5,29.94,SE,131,0.0,3.0,80,0.00,,,0.00,Weather View 32 v70,2013-01-12 00:00:00,
2013-01-11 18:05:00,70.0,63.9,29.94,SE,145,0.0,3.0,81,0.00,,,0.00,Weather View 32 v70,2013-01-12 00:05:00,
2013-01-11 18:10:00,70.0,63.9,29.94,ESE,122,0.0,3.0,81,0.00,,,0.00,Weather View 32 v70,2013-01-12 00:10:00,
2013-01-11 18:20:00,70.0,63.9,29.91,SSE,151,0.0,3.0,81,0.00,,,0.00,Weather View 32 v70,2013-01-12 00:20:00,
2013-01-11 18:25:00,69.8,63.7,29.91,SSE,153,0.0,3.0,81,0.00,,,0.00,Weather View 32 v70,2013-01-12 00:25:00,
2013-01-11 18:30:00,70.0,63.9,29.91,SSW,199,0.0,3.0,81,0.00,,,0.00,Weather View 32 v70,2013-01-12 00:30:00,
2013-01-11 18:40:00,70.0,63.9,29.94,South,186,0.0,4.0,81,0.00,,,0.00,Weather View 32 v70,2013-01-12 00:40:00,
2013-01-11 18:45:00,69.8,63.7,29.94,SSW,194,0.0,4.0,81,0.00,,,0.00,Weather View 32 v70,2013-01-12 00:45:00,
2013-01-11 18:50:00,69.8,63.7,29.94,South,171,0.0,4.0,81,0.00,,,0.00,Weather View 32 v70,2013-01-12 00:50:00,
2013-01-11 19:00:00,69.8,63.7,29.94,SE,143,0.0,4.0,81,0.00,,,0.00,Weather View 32 v70,2013-01-12 01:00:00,
2013-01-11 19:05:00,69.8,63.7,29.94,South,176,0.0,4.0,81,0.00,,,0.00,Weather View 32 v70,2013-01-12 01:05:00,
2013-01-11 19:10:00,69.8,63.7,29.94,South,175,0.0,4.0,81,0.00,,,0.00,Weather View 32 v70,2013-01-12 01:10:00,
2013-01-11 19:20:00,69.8,63.7,29.94,SSE,167,0.0,4.0,81,0.00,,,0.00,Weather View 32 v70,2013-01-12 01:20:00,
2013-01-11 19:25:00,69.8,63.7,29.94,SSE,162,0.0,4.0,81,0.00,,,0.00,Weather View 32 v70,2013-01-12 01:25:00,
2013-01-11 19:35:00,69.6,63.9,29.94,SSE,162,0.0,4.0,82,0.00,,,0.00,Weather View 32 v70,2013-01-12 01:35:00,
2013-01-11 19:40:00,69.6,63.9,29.94,SSE,168,0.0,3.0,82,0.00,,,0.00,Weather View 32 v70,2013-01-12 01:40:00,
2013-01-11 19:45:00,69.6,63.9,29.94,SSE,154,0.0,3.0,82,0.00,,,0.00,Weather View 32 v70,2013-01-12 01:45:00,
2013-01-11 19:50:00,69.6,63.9,29.94,South,171,0.0,3.0,82,0.00,,,0.00,Weather View 32 v70,2013-01-12 01:50:00,
2013-01-11 19:55:00,69.6,63.9,29.94,SE,125,0.0,3.0,82,0.00,,,0.00,Weather View 32 v70,2013-01-12 01:55:00,
2013-01-11 20:00:00,69.6,63.9,29.94,SE,124,0.0,3.0,82,0.00,,,0.00,Weather View 32 v70,2013-01-12 02:00:00,
2013-01-11 20:05:00,69.4,63.7,29.94,ESE,111,0.0,3.0,82,0.00,,,0.00,Weather View 32 v70,2013-01-12 02:05:00,
2013-01-11 20:15:00,69.3,63.5,29.94,ENE,77,0.0,3.0,82,0.00,,,0.00,Weather View 32 v70,2013-01-12 02:15:00,
2013-01-11 20:20:00,69.1,63.3,29.94,SE,138,0.0,3.0,82,0.00,,,0.00,Weather View 32 v70,2013-01-12 02:20:00,
2013-01-11 20:24:00,68.9,63.2,29.94,SE,137,0.0,3.0,82,0.00,,,0.00,Weather View 32 v70,2013-01-12 02:24:00,
2013-01-11 20:30:00,68.7,63.0,29.94,SSE,159,0.0,3.0,82,0.00,,,0.00,Weather View 32 v70,2013-01-12 02:30:00,
2013-01-11 20:34:00,68.7,63.0,29.94,SE,133,0.0,3.0,82,0.00,,,0.00,Weather View 32 v70,2013-01-12 02:34:00,
2013-01-11 20:40:00,68.7,63.0,29.94,SE,142,0.0,3.0,82,0.00,,,0.00,Weather View 32 v70,2013-01-12 02:40:00,
2013-01-11 20:44:00,68.7,63.0,29.94,SE,137,0.0,3.0,82,0.00,,,0.00,Weather View 32 v70,2013-01-12 02:44:00,
2013-01-11 20:50:00,68.7,63.0,29.94,SSE,150,0.0,3.0,82,0.00,,,0.00,Weather View 32 v70,2013-01-12 02:50:00,
2013-01-11 21:00:00,68.5,62.8,29.94,SSE,168,0.0,3.0,82,0.00,,,0.00,Weather View 32 v70,2013-01-12 03:00:00,
2013-01-11 21:05:00,68.5,62.8,29.94,SSE,150,0.0,3.0,82,0.00,,,0.00,Weather View 32 v70,2013-01-12 03:05:00,
2013-01-11 21:10:00,68.5,62.8,29.94,SSE,147,0.0,3.0,82,0.00,,,0.00,Weather View 32 v70,2013-01-12 03:10:00,
2013-01-11 21:15:00,68.4,62.6,29.94,SE,133,0.0,3.0,82,0.00,,,0.00,Weather View 32 v70,2013-01-12 03:15:00,
2013-01-11 21:25:00,68.4,62.6,29.94,SSW,192,0.0,3.0,82,0.00,,,0.00,Weather View 32 v70,2013-01-12 03:25:00,
2013-01-11 21:35:00,68.4,62.6,29.94,SSE,150,0.0,3.0,82,0.00,,,0.00,Weather View 32 v70,2013-01-12 03:35:00,
2013-01-11 21:40:00,68.2,62.5,29.94,SSE,163,0.0,3.0,82,0.00,,,0.00,Weather View 32 v70,2013-01-12 03:40:00,
2013-01-11 21:45:00,68.2,62.5,29.94,South,170,0.0,3.0,82,0.00,,,0.00,Weather View 32 v70,2013-01-12 03:45:00,
2013-01-11 21:55:00,68.2,62.5,29.94,SSE,155,0.0,3.0,82,0.00,,,0.00,Weather View 32 v70,2013-01-12 03:55:00,
2013-01-11 22:04:00,68.0,62.3,29.94,South,171,0.0,3.0,82,0.00,,,0.00,Weather View 32 v70,2013-01-12 04:04:00,
2013-01-11 22:10:00,68.0,62.3,29.94,South,189,0.0,3.0,82,0.00,,,0.00,Weather View 32 v70,2013-01-12 04:10:00,
2013-01-11 22:15:00,68.0,62.3,29.94,SSE,148,0.0,3.0,82,0.00,,,0.00,Weather View 32 v70,2013-01-12 04:15:00,
2013-01-11 22:20:00,68.0,62.3,29.94,South,169,0.0,3.0,82,0.00,,,0.00,Weather View 32 v70,2013-01-12 04:20:00,
2013-01-11 22:25:00,68.0,62.3,29.94,SSE,150,0.0,3.0,82,0.00,,,0.00,Weather View 32 v70,2013-01-12 04:25:00,
2013-01-11 22:30:00,68.0,62.3,29.94,SSE,154,0.0,2.0,82,0.00,,,0.00,Weather View 32 v70,2013-01-12 04:30:00,
2013-01-11 22:39:00,68.0,62.3,29.94,SSE,160,0.0,2.0,82,0.00,,,0.00,Weather View 32 v70,2013-01-12 04:39:00,
2013-01-11 22:44:00,68.0,62.3,29.94,SSE,166,0.0,0.0,82,0.00,,,0.00,Weather View 32 v70,2013-01-12 04:44:00,
2013-01-11 22:50:00,68.0,62.3,29.94,SSE,157,0.0,2.0,82,0.00,,,0.00,Weather View 32 v70,2013-01-12 04:50:00,
2013-01-11 22:55:00,68.0,62.3,29.94,SE,131,0.0,2.0,82,0.00,,,0.00,Weather View 32 v70,2013-01-12 04:55:00,
2013-01-11 23:05:00,68.0,62.3,29.94,SSE,157,0.0,2.0,82,0.00,,,0.00,Weather View 32 v70,2013-01-12 05:05:00,
2013-01-11 23:10:00,67.8,62.1,29.94,SE,145,0.0,2.0,82,0.00,,,0.00,Weather View 32 v70,2013-01-12 05:10:00,
2013-01-11 23:15:00,67.8,62.1,29.94,SE,136,0.0,2.0,82,0.00,,,0.00,Weather View 32 v70,2013-01-12 05:15:00,
2013-01-11 23:20:00,67.8,62.1,29.94,SE,142,0.0,3.0,82,0.00,,,0.00,Weather View 32 v70,2013-01-12 05:20:00,
2013-01-11 23:24:00,67.6,61.9,29.94,SSE,167,0.0,3.0,82,0.00,,,0.00,Weather View 32 v70,2013-01-12 05:24:00,
2013-01-11 23:30:00,67.5,61.8,29.94,South,169,0.0,3.0,82,0.00,,,0.00,Weather View 32 v70,2013-01-12 05:30:00,
2013-01-11 23:40:00,67.1,61.4,29.94,ESE,118,0.0,3.0,82,0.00,,,0.00,Weather View 32 v70,2013-01-12 05:40:00,
2013-01-11 23:50:00,66.9,61.2,29.94,SSE,154,0.0,3.0,82,0.00,,,0.00,Weather View 32 v70,2013-01-12 05:50:00,
2013-01-11 23:59:00,66.9,61.2,29.94,South,183,0.0,3.0,82,0.00,,,0.00,Weather View 32 v70,2013-01-12 05:59:00,